Key Largo — ZR4088 — position and weather

sailwx.info

Track history (hours):
 
Tides and Currents Weather Stations Pressure Air Temp Water Temp Dewpoint Dewpoint Depression Visibility Wind Speed Wind Dir Waves Ship Positions

Key Largo

Last reported at 2018-Jul-18 16:31 UTC. Time now 2018-Jul-19 07:41 UTC.
Position S 29°52' E 031°17'.

Length 37 m; draft 3.5 m.

Type: Fishing. MMSI: 601491000.

Date/timePositionNaut miles runAvg speedWind from/ knotsBaromVisibWave heightAir tempDewpointWater temp
2018-Jul-18 16:31S 29°52' E 031°17'2 1.1
2018-Jul-18 14:13S 29°54' E 031°19'3 0.3
2018-Jul-18 04:33S 29°51' E 031°19'0 1.2
2018-Jul-18 04:16S 29°51' E 031°19'1 1.6
2018-Jul-18 03:52S 29°52' E 031°18'1 2.9
2018-Jul-18 03:27S 29°52' E 031°17'1 0.0
2018-Jul-16 04:25S 29°52' E 031°18'1 2.0
2018-Jul-16 04:00S 29°52' E 031°17'2 0.2
2018-Jul-15 16:19S 29°53' E 031°15'4 9.5
2018-Jul-15 15:53S 29°52' E 031°10'4 9.6
2018-Jul-15 15:30S 29°52' E 031°06'2 0.0
2018-Jul-14 06:36S 29°52' E 031°04'1 8.2
2018-Jul-14 06:28S 29°51' E 031°05'13 0.9
2018-Jul-13 16:33S 29°54' E 031°19'0 1.2
2018-Jul-13 16:18S 29°54' E 031°19'2 2.1
2018-Jul-13 15:17S 29°56' E 031°18'1 2.8
2018-Jul-13 14:51S 29°57' E 031°18'3 2.9
2018-Jul-13 13:56S 29°59' E 031°16'1 2.9
2018-Jul-13 13:29S 30°00' E 031°15'2 2.8
2018-Jul-13 12:57S 30°02' E 031°14'1 2.9
2018-Jul-13 12:26S 30°03' E 031°14'1 3.0
2018-Jul-13 11:59S 30°04' E 031°12'1 2.9
2018-Jul-13 11:29S 30°04' E 031°11'16 1.8
2018-Jul-13 02:15S 29°50' E 031°19'2 7.4
2018-Jul-13 02:00S 29°50' E 031°17'4 8.5
2018-Jul-13 01:30S 29°51' E 031°13'4 8.3
2018-Jul-13 01:00S 29°51' E 031°08'4 8.1
2018-Jul-13 00:27S 29°53' E 031°03'1 0.0
2018-Jul-11 18:24S 29°52' E 031°04'5 9.0
2018-Jul-11 17:49S 29°52' E 031°10'4 9.0
2018-Jul-11 17:21S 29°52' E 031°15'9 1.1
2018-Jul-11 08:57S 29°58' E 031°22'2 0.1
2018-Jul-10 17:22S 29°57' E 031°23'1 2.9
2018-Jul-10 16:53S 29°57' E 031°21'2 0.3
2018-Jul-10 10:32S 29°56' E 031°20'2 0.4
2018-Jul-10 04:41S 29°58' E 031°18'4 0.1
2018-Jul-08 23:11S 29°54' E 031°19'1 3.1
2018-Jul-08 23:00S 29°54' E 031°19'1 2.2
2018-Jul-08 22:22S 29°55' E 031°17'  
Track history (hours):
 
Tides and Currents Weather Stations Pressure Air Temp Water Temp Dewpoint Dewpoint Depression Visibility Wind Speed Wind Dir Waves Ship Positions

Key Largo

Last reported at 2018-Jul-18 16:31 UTC. Time now 2018-Jul-19 07:41 UTC.
Position S 29°52' E 031°17'.

Length 37 m; draft 3.5 m.

Type: Fishing. MMSI: 601491000.

Date/timePositionNaut miles runAvg speedWind from/ knotsBaromVisibWave heightAir tempDewpointWater temp
2018-Jul-18 16:31S 29°52' E 031°17'2 1.1
2018-Jul-18 14:13S 29°54' E 031°19'3 0.3
2018-Jul-18 04:33S 29°51' E 031°19'0 1.2
2018-Jul-18 04:16S 29°51' E 031°19'1 1.6
2018-Jul-18 03:52S 29°52' E 031°18'1 2.9
2018-Jul-18 03:27S 29°52' E 031°17'1 0.0
2018-Jul-16 04:25S 29°52' E 031°18'1 2.0
2018-Jul-16 04:00S 29°52' E 031°17'2 0.2
2018-Jul-15 16:19S 29°53' E 031°15'4 9.5
2018-Jul-15 15:53S 29°52' E 031°10'4 9.6
2018-Jul-15 15:30S 29°52' E 031°06'2 0.0
2018-Jul-14 06:36S 29°52' E 031°04'1 8.2
2018-Jul-14 06:28S 29°51' E 031°05'13 0.9
2018-Jul-13 16:33S 29°54' E 031°19'0 1.2
2018-Jul-13 16:18S 29°54' E 031°19'2 2.1
2018-Jul-13 15:17S 29°56' E 031°18'1 2.8
2018-Jul-13 14:51S 29°57' E 031°18'3 2.9
2018-Jul-13 13:56S 29°59' E 031°16'1 2.9
2018-Jul-13 13:29S 30°00' E 031°15'2 2.8
2018-Jul-13 12:57S 30°02' E 031°14'1 2.9
2018-Jul-13 12:26S 30°03' E 031°14'1 3.0
2018-Jul-13 11:59S 30°04' E 031°12'1 2.9
2018-Jul-13 11:29S 30°04' E 031°11'16 1.8
2018-Jul-13 02:15S 29°50' E 031°19'2 7.4
2018-Jul-13 02:00S 29°50' E 031°17'4 8.5
2018-Jul-13 01:30S 29°51' E 031°13'4 8.3
2018-Jul-13 01:00S 29°51' E 031°08'4 8.1
2018-Jul-13 00:27S 29°53' E 031°03'1 0.0
2018-Jul-11 18:24S 29°52' E 031°04'5 9.0
2018-Jul-11 17:49S 29°52' E 031°10'4 9.0
2018-Jul-11 17:21S 29°52' E 031°15'9 1.1
2018-Jul-11 08:57S 29°58' E 031°22'2 0.1
2018-Jul-10 17:22S 29°57' E 031°23'1 2.9
2018-Jul-10 16:53S 29°57' E 031°21'2 0.3
2018-Jul-10 10:32S 29°56' E 031°20'2 0.4
2018-Jul-10 04:41S 29°58' E 031°18'4 0.1
2018-Jul-08 23:11S 29°54' E 031°19'1 3.1
2018-Jul-08 23:00S 29°54' E 031°19'1 2.2
2018-Jul-08 22:22S 29°55' E 031°17'  

Dump ship's entire track history